Time;durP1;ratioP1;P1;durP2;ratioP2;P2;SDS_P1;SDS_P2;PMS_P1;PMS_P2;Temp;Humidity;BMP_temperature;BMP_pressure;BME280_temperature;BME280_humidity;BME280_pressure;Samples;Min_cycle;Max_cycle;Signal;HPM_P1;HPM_P2
2023/05/07 00:01:56;;;;;;;5.97;5.23;;;;;;;-143.99;100.00;64180.81;6126921;28;20244;-71
2023/05/07 00:05:17;;;;;;;6.73;3.80;;;;;;;-143.99;100.00;64180.81;6134640;28;20238;-70
2023/05/07 00:08:39;;;;;;;5.33;4.87;;;;;;;-143.99;100.00;64180.81;6156567;28;20234;-71
2023/05/07 00:12:00;;;;;;;4.70;4.30;;;;;;;-143.99;100.00;64180.81;6151202;28;20233;-71
2023/05/07 00:15:21;;;;;;;5.33;4.83;;;;;;;-143.99;100.00;64180.81;6132009;28;20238;-71
2023/05/07 00:18:42;;;;;;;4.47;4.07;;;;;;;-143.99;100.00;64180.81;6140194;28;20231;-72
2023/05/07 00:22:03;;;;;;;5.13;4.63;;;;;;;-143.99;100.00;64180.81;6140368;28;20222;-70
2023/05/07 00:25:25;;;;;;;4.43;3.77;;;;;;;-143.99;100.00;64180.81;6123495;28;20728;-71
2023/05/07 00:28:46;;;;;;;5.77;5.27;;;;;;;-143.99;100.00;64180.81;6147926;28;20238;-71
2023/05/07 00:32:07;;;;;;;5.27;4.70;;;;;;;-143.99;100.00;64180.81;6140060;28;20235;-70
2023/05/07 00:35:29;;;;;;;5.20;4.37;;;;;;;-143.99;100.00;64180.81;6125567;28;20227;-71
2023/05/07 00:38:50;;;;;;;5.77;4.40;;;;;;;-143.99;100.00;64180.81;6144507;28;20276;-70
2023/05/07 00:42:12;;;;;;;6.27;5.53;;;;;;;-143.99;100.00;64180.81;6129713;28;20223;-71
2023/05/07 00:45:34;;;;;;;4.73;4.23;;;;;;;-143.99;100.00;64180.81;6135508;28;20262;-71
2023/05/07 00:48:55;;;;;;;6.33;4.43;;;;;;;-143.99;100.00;64180.81;6136915;28;20550;-71
2023/05/07 00:52:18;;;;;;;5.13;4.43;;;;;;;-143.99;100.00;64180.81;6145560;28;20266;-71
2023/05/07 00:55:39;;;;;;;6.20;5.63;;;;;;;-143.99;100.00;64180.81;6135712;28;20238;-71
2023/05/07 00:59:03;;;;;;;5.73;4.63;;;;;;;-143.99;100.00;64180.81;6141300;28;20227;-71
2023/05/07 01:02:24;;;;;;;7.80;4.47;;;;;;;-143.99;100.00;64180.81;6137360;28;20243;-70
2023/05/07 01:05:47;;;;;;;6.43;4.47;;;;;;;-143.99;100.00;64180.81;6134455;28;20238;-71
2023/05/07 01:09:09;;;;;;;5.57;5.03;;;;;;;-143.99;100.00;64180.81;6146603;28;20249;-71
2023/05/07 01:12:31;;;;;;;4.83;3.93;;;;;;;-143.99;100.00;64180.81;6145898;28;20223;-71
2023/05/07 01:15:54;;;;;;;5.37;4.53;;;;;;;-143.99;100.00;64180.81;6136049;28;20226;-71
2023/05/07 01:19:18;;;;;;;3.80;3.50;;;;;;;-143.99;100.00;64180.81;6140643;28;20262;-70
2023/05/07 01:22:41;;;;;;;5.87;4.73;;;;;;;-143.99;100.00;64180.81;6129970;28;20677;-70
2023/05/07 01:26:03;;;;;;;4.43;4.03;;;;;;;-143.99;100.00;64180.81;6143786;28;20234;-71
2023/05/07 01:29:26;;;;;;;3.53;3.23;;;;;;;-143.99;100.00;64180.81;6140261;28;20238;-69
2023/05/07 01:32:51;;;;;;;6.03;3.73;;;;;;;-143.99;100.00;64180.81;6135299;28;20235;-70
2023/05/07 01:36:14;;;;;;;7.30;5.37;;;;;;;-143.99;100.00;64180.81;6132828;28;20235;-71
2023/05/07 01:39:39;;;;;;;6.00;5.47;;;;;;;-143.99;100.00;64180.81;6136342;28;20227;-70
2023/05/07 01:43:01;;;;;;;5.63;4.50;;;;;;;-143.99;100.00;64180.81;6132492;28;20239;-70
2023/05/07 01:46:22;;;;;;;4.37;3.97;;;;;;;-143.99;100.00;64180.81;6135526;28;20656;-71
2023/05/07 01:49:43;;;;;;;3.47;3.27;;;;;;;-143.99;100.00;64180.81;6144732;28;20242;-70
2023/05/07 01:53:04;;;;;;;4.80;4.50;;;;;;;-143.99;100.00;64180.81;6117834;28;20522;-71
2023/05/07 01:56:26;;;;;;;4.00;3.40;;;;;;;-143.99;100.00;64180.81;6150729;28;20321;-70
2023/05/07 01:59:48;;;;;;;3.93;3.63;;;;;;;-143.99;100.00;64180.81;6141558;28;20235;-71
2023/05/07 02:03:09;;;;;;;3.30;3.10;;;;;;;-143.99;100.00;64180.81;6146727;28;20727;-70
2023/05/07 02:06:46;;;;;;;5.17;4.57;;;;;;;-143.99;100.00;64180.81;6152509;28;20238;-71
2023/05/07 02:10:09;;;;;;;6.23;4.47;;;;;;;-143.99;100.00;64180.81;6129994;28;20231;-70
2023/05/07 02:13:34;;;;;;;4.53;3.93;;;;;;;-143.99;100.00;64180.81;6143876;28;20230;-70
2023/05/07 02:16:55;;;;;;;4.43;4.10;;;;;;;-143.99;100.00;64180.81;6132422;28;20230;-70
2023/05/07 02:20:16;;;;;;;3.87;3.57;;;;;;;-143.99;100.00;64180.81;6128543;28;20242;-70
2023/05/07 02:23:37;;;;;;;3.43;3.13;;;;;;;-143.99;100.00;64180.81;6140896;28;20239;-69
2023/05/07 02:26:58;;;;;;;3.87;3.57;;;;;;;-143.99;100.00;64180.81;6123497;28;20242;-69
2023/05/07 02:30:21;;;;;;;3.60;3.23;;;;;;;-143.99;100.00;64180.81;6145890;28;20507;-69
2023/05/07 02:33:46;;;;;;;6.50;4.13;;;;;;;-143.99;100.00;64180.81;6142999;28;20251;-70
2023/05/07 02:37:07;;;;;;;3.53;3.17;;;;;;;-143.99;100.00;64180.81;6123279;28;20284;-69
2023/05/07 02:40:28;;;;;;;4.17;3.47;;;;;;;-143.99;100.00;64180.81;6128704;28;20231;-69
2023/05/07 02:43:49;;;;;;;8.00;4.07;;;;;;;-143.99;100.00;64180.81;6135323;28;20335;-70
2023/05/07 02:47:12;;;;;;;3.97;3.53;;;;;;;-143.99;100.00;64180.81;6147041;28;20325;-70
2023/05/07 02:50:35;;;;;;;4.77;4.40;;;;;;;-143.99;100.00;64180.81;6130147;28;20230;-71
2023/05/07 02:53:56;;;;;;;3.90;3.23;;;;;;;-143.99;100.00;64180.81;6144626;28;20230;-70
2023/05/07 02:57:17;;;;;;;5.43;4.93;;;;;;;-143.99;100.00;64180.81;6132450;28;20234;-70
2023/05/07 03:00:38;;;;;;;7.27;4.60;;;;;;;-143.99;100.00;64180.81;6141406;28;20239;-70
2023/05/07 03:04:21;;;;;;;5.20;4.33;;;;;;;-143.99;100.00;64180.81;6143173;28;20235;-71
2023/05/07 03:07:45;;;;;;;4.30;3.40;;;;;;;-143.99;100.00;64180.81;6143427;28;20228;-70
2023/05/07 03:11:06;;;;;;;3.93;3.33;;;;;;;-143.99;100.00;64180.81;6134414;28;20242;-70
2023/05/07 03:14:27;;;;;;;4.47;4.13;;;;;;;-143.99;100.00;64180.81;6145332;28;20263;-70
2023/05/07 03:17:48;;;;;;;6.10;4.97;;;;;;;-143.99;100.00;64180.81;6137619;28;20596;-70
2023/05/07 03:21:10;;;;;;;7.47;3.60;;;;;;;-143.99;100.00;64180.81;6138857;28;20234;-70
2023/05/07 03:24:31;;;;;;;3.97;3.50;;;;;;;-143.99;100.00;64180.81;6146835;28;20322;-71
2023/05/07 03:27:54;;;;;;;5.30;4.80;;;;;;;-143.99;100.00;64180.81;6144058;28;20318;-71
2023/05/07 03:31:19;;;;;;;4.90;4.40;;;;;;;-143.99;100.00;64180.81;6136099;28;20230;-71
2023/05/07 03:34:40;;;;;;;4.03;3.63;;;;;;;-143.99;100.00;64180.81;6141888;28;20239;-71
2023/05/07 03:38:02;;;;;;;7.53;4.30;;;;;;;-143.99;100.00;64180.81;6127429;28;20255;-70
2023/05/07 03:41:27;;;;;;;6.70;5.50;;;;;;;-143.99;100.00;64180.81;6133019;28;20227;-71
2023/05/07 03:44:48;;;;;;;4.63;3.80;;;;;;;-143.99;100.00;64180.81;6135668;28;20616;-71
2023/05/07 03:48:09;;;;;;;4.27;3.80;;;;;;;-143.99;100.00;64180.81;6141223;28;20231;-71
2023/05/07 03:51:31;;;;;;;4.77;4.27;;;;;;;-143.99;100.00;64180.81;6137340;28;20508;-71
2023/05/07 03:54:54;;;;;;;4.47;3.90;;;;;;;-143.99;100.00;64180.81;6133026;28;20613;-71
2023/05/07 03:58:16;;;;;;;5.17;4.70;;;;;;;-143.99;100.00;64180.81;6152006;28;20267;-70
2023/05/07 04:01:38;;;;;;;4.40;4.00;;;;;;;-143.99;100.00;64180.81;6136875;28;20280;-71
2023/05/07 04:04:59;;;;;;;5.77;5.23;;;;;;;-143.99;100.00;64180.81;6145124;28;20681;-70
2023/05/07 04:08:20;;;;;;;3.53;3.33;;;;;;;-143.99;100.00;64180.81;6145399;28;20235;-71
2023/05/07 04:11:45;;;;;;;4.83;4.43;;;;;;;-143.99;100.00;64180.81;6140193;28;20247;-70
2023/05/07 04:15:07;;;;;;;4.83;4.43;;;;;;;-143.99;100.00;64180.81;6131283;28;20242;-70
2023/05/07 04:18:29;;;;;;;5.13;4.23;;;;;;;-143.99;100.00;64180.81;6152948;28;20220;-70
2023/05/07 04:21:50;;;;;;;4.63;4.23;;;;;;;-143.99;100.00;64180.81;6134514;28;20230;-70
2023/05/07 04:25:11;;;;;;;3.87;3.50;;;;;;;-143.99;100.00;64180.81;6131816;28;20239;-70
2023/05/07 04:28:33;;;;;;;6.47;4.87;;;;;;;-143.99;100.00;64180.81;6138722;28;20235;-70
2023/05/07 04:31:55;;;;;;;4.67;4.07;;;;;;;-143.99;100.00;64180.81;6132610;28;20243;-70
2023/05/07 04:35:17;;;;;;;5.60;3.40;;;;;;;-143.99;100.00;64180.81;6124293;28;20267;-70
2023/05/07 04:38:38;;;;;;;3.97;3.67;;;;;;;-143.99;100.00;64180.81;6133596;28;20231;-71
2023/05/07 04:42:00;;;;;;;6.03;3.87;;;;;;;-143.99;100.00;64180.81;6149623;28;20262;-70
2023/05/07 04:45:23;;;;;;;4.23;3.87;;;;;;;-143.99;100.00;64180.81;6132971;28;20243;-71
2023/05/07 04:48:46;;;;;;;5.07;4.13;;;;;;;-143.99;100.00;64180.81;6137399;28;20498;-70
2023/05/07 04:52:07;;;;;;;5.03;4.20;;;;;;;-143.99;100.00;64180.81;6111835;28;20266;-70
2023/05/07 04:55:28;;;;;;;3.40;3.10;;;;;;;-143.99;100.00;64180.81;6129441;28;20243;-70
2023/05/07 04:58:49;;;;;;;4.87;4.47;;;;;;;-143.99;100.00;64180.81;6157070;28;20239;-71
2023/05/07 05:02:15;;;;;;;4.20;3.57;;;;;;;-143.99;100.00;64180.81;6140474;28;20250;-70
2023/05/07 05:05:36;;;;;;;3.93;3.57;;;;;;;-143.99;100.00;64180.81;6139320;28;20238;-72
2023/05/07 05:08:57;;;;;;;3.67;3.27;;;;;;;-143.99;100.00;64180.81;6147676;28;20227;-70
2023/05/07 05:12:20;;;;;;;4.27;3.87;;;;;;;-143.99;100.00;64180.81;6133525;28;20696;-70
2023/05/07 05:15:41;;;;;;;4.80;4.37;;;;;;;-143.99;100.00;64180.81;6130207;28;20234;-71
2023/05/07 05:19:03;;;;;;;4.23;3.83;;;;;;;-143.99;100.00;64180.81;6137160;28;20310;-70
2023/05/07 05:22:29;;;;;;;3.47;3.17;;;;;;;-143.99;100.00;64180.81;6135077;28;20235;-71
2023/05/07 05:25:55;;;;;;;8.20;4.80;;;;;;;-143.99;100.00;64180.81;6137482;28;20235;-70
2023/05/07 05:29:17;;;;;;;3.77;3.43;;;;;;;-143.99;100.00;64180.81;6142745;28;20254;-71
2023/05/07 05:32:38;;;;;;;5.03;4.50;;;;;;;-143.99;100.00;64180.81;6121582;28;20235;-70
2023/05/07 05:36:02;;;;;;;5.93;3.63;;;;;;;-143.99;100.00;64180.81;6137050;28;20321;-69
2023/05/07 05:39:23;;;;;;;5.27;3.97;;;;;;;-143.99;100.00;64180.81;6144128;28;20235;-70
2023/05/07 05:42:44;;;;;;;4.17;3.70;;;;;;;-143.99;100.00;64180.81;6137674;28;20235;-70
2023/05/07 05:46:06;;;;;;;3.53;3.13;;;;;;;-143.99;100.00;64180.81;6139097;28;20230;-70
2023/05/07 05:49:29;;;;;;;5.33;3.70;;;;;;;-143.99;100.00;64180.81;6134537;28;20322;-70
2023/05/07 05:52:51;;;;;;;4.93;4.20;;;;;;;-143.99;100.00;64180.81;6141627;28;20232;-68
2023/05/07 05:56:13;;;;;;;5.43;3.80;;;;;;;-143.99;100.00;64180.81;6136801;28;20226;-70
2023/05/07 05:59:35;;;;;;;5.53;4.70;;;;;;;-143.99;100.00;64180.81;6142239;28;20271;-70
2023/05/07 06:02:56;;;;;;;4.60;4.20;;;;;;;-143.99;100.00;64180.81;6140185;28;20256;-70
2023/05/07 06:06:19;;;;;;;4.07;3.77;;;;;;;-143.99;100.00;64180.81;6144676;28;20615;-71
2023/05/07 06:09:42;;;;;;;4.87;4.47;;;;;;;-143.99;100.00;64180.81;6144637;28;20237;-70
2023/05/07 06:13:03;;;;;;;4.23;3.50;;;;;;;-143.99;100.00;64180.81;6140722;28;20219;-70
2023/05/07 06:16:26;;;;;;;3.80;3.50;;;;;;;-143.99;100.00;64180.81;6133534;28;20633;-69
2023/05/07 06:19:47;;;;;;;6.87;4.80;;;;;;;-143.99;100.00;64180.81;6150113;28;20227;-70
2023/05/07 06:23:10;;;;;;;4.07;3.73;;;;;;;-143.99;100.00;64180.81;6136355;28;20243;-70
2023/05/07 06:26:33;;;;;;;3.80;3.50;;;;;;;-143.99;100.00;64180.81;6136427;28;20238;-71
2023/05/07 06:29:54;;;;;;;5.30;4.00;;;;;;;-143.99;100.00;64180.81;6133273;28;20227;-71
2023/05/07 06:33:16;;;;;;;3.73;3.40;;;;;;;-143.99;100.00;64180.81;6146803;28;20333;-71
2023/05/07 06:36:37;;;;;;;6.37;4.37;;;;;;;-143.99;100.00;64180.81;6135427;28;20317;-70
2023/05/07 06:40:11;;;;;;;4.47;3.00;;;;;;;-143.99;100.00;64180.81;6131270;28;20250;-70
2023/05/07 06:43:36;;;;;;;5.00;3.93;;;;;;;-143.99;100.00;64180.81;6132302;28;20599;-71
2023/05/07 06:47:26;;;;;;;3.93;3.20;;;;;;;-143.99;100.00;64180.81;6138828;28;20247;-69
2023/05/07 06:50:49;;;;;;;4.37;3.90;;;;;;;-143.99;100.00;64180.81;6130036;28;20234;-70
2023/05/07 06:54:10;;;;;;;4.17;3.70;;;;;;;-143.99;100.00;64180.81;6132090;28;20228;-70
2023/05/07 06:57:33;;;;;;;3.73;3.27;;;;;;;-143.99;100.00;64180.81;6131153;28;20621;-71
2023/05/07 07:00:55;;;;;;;3.53;3.33;;;;;;;-143.99;100.00;64180.81;6129408;28;20231;-71
2023/05/07 07:04:17;;;;;;;5.93;4.57;;;;;;;-143.99;100.00;64180.81;6121478;28;20247;-69
2023/05/07 07:07:42;;;;;;;2.90;2.70;;;;;;;-143.99;100.00;64180.81;6128354;28;20462;-70
2023/05/07 07:11:05;;;;;;;4.63;3.33;;;;;;;-143.99;100.00;64180.81;6118931;28;21694;-69
2023/05/07 07:14:26;;;;;;;5.43;4.03;;;;;;;-143.99;100.00;64180.81;6160062;28;20338;-70
2023/05/07 07:17:50;;;;;;;3.60;3.30;;;;;;;-143.99;100.00;64180.81;6125505;28;20238;-70
2023/05/07 07:21:11;;;;;;;6.60;4.37;;;;;;;-143.99;100.00;64180.81;6135760;28;20234;-70
2023/05/07 07:24:32;;;;;;;2.90;2.67;;;;;;;-143.99;100.00;64180.81;6146897;28;20258;-71
2023/05/07 07:27:56;;;;;;;4.03;3.60;;;;;;;-143.99;100.00;64180.81;6145070;28;20228;-69
2023/05/07 07:31:19;;;;;;;3.30;2.90;;;;;;;-143.99;100.00;64180.81;6150906;28;20231;-70
2023/05/07 07:34:42;;;;;;;4.30;3.73;;;;;;;-143.99;100.00;64180.81;6139044;28;20263;-70
2023/05/07 07:38:04;;;;;;;4.17;3.37;;;;;;;-143.99;100.00;64180.81;6148029;28;20227;-70
2023/05/07 07:41:25;;;;;;;3.40;3.10;;;;;;;-143.99;100.00;64180.81;6135206;28;20230;-70
2023/05/07 07:44:47;;;;;;;2.83;2.53;;;;;;;-143.99;100.00;64180.81;6140466;28;20239;-70
2023/05/07 07:48:10;;;;;;;2.63;2.23;;;;;;;-143.99;100.00;64180.81;6138647;28;20564;-70
2023/05/07 07:51:34;;;;;;;4.23;3.40;;;;;;;-143.99;100.00;64180.81;6150434;28;20254;-69
2023/05/07 07:54:55;;;;;;;3.43;3.07;;;;;;;-143.99;100.00;64180.81;6139764;28;20239;-70
2023/05/07 07:58:17;;;;;;;3.97;2.70;;;;;;;-143.99;100.00;64180.81;6153683;28;20235;-69
2023/05/07 08:01:38;;;;;;;3.37;3.07;;;;;;;-143.99;100.00;64180.81;6129495;28;20234;-70
2023/05/07 08:05:00;;;;;;;3.70;3.37;;;;;;;-143.99;100.00;64180.81;6142212;28;20224;-70
2023/05/07 08:08:22;;;;;;;5.13;3.30;;;;;;;-143.99;100.00;64180.81;6140530;28;20520;-70
2023/05/07 08:11:44;;;;;;;3.47;3.17;;;;;;;-143.99;100.00;64180.81;6134586;28;20599;-70
2023/05/07 08:15:06;;;;;;;3.07;2.43;;;;;;;-143.99;100.00;64180.81;6135793;28;20316;-70
2023/05/07 08:18:28;;;;;;;6.43;3.30;;;;;;;-143.99;100.00;64180.81;6161681;28;20321;-70
2023/05/07 08:21:50;;;;;;;4.43;2.90;;;;;;;-143.99;100.00;64180.81;6145260;28;20663;-71
2023/05/07 08:25:14;;;;;;;5.57;3.33;;;;;;;-143.99;100.00;64180.81;6135315;28;20247;-71
2023/05/07 08:28:35;;;;;;;4.03;3.13;;;;;;;-143.99;100.00;64180.81;6153404;28;20619;-70
2023/05/07 08:31:55;;;;;;;3.27;2.50;;;;;;;-143.99;100.00;64180.81;6125353;28;21288;-70
2023/05/07 08:35:16;;;;;;;3.33;2.80;;;;;;;-143.99;100.00;64180.81;6120646;28;20240;-70
2023/05/07 08:38:37;;;;;;;2.73;2.53;;;;;;;-143.99;100.00;64180.81;6137594;28;20236;-70
2023/05/07 08:42:02;;;;;;;3.13;2.93;;;;;;;-143.99;100.00;64180.81;6143438;28;20226;-70
2023/05/07 08:45:24;;;;;;;2.70;2.50;;;;;;;-143.99;100.00;64180.81;6134654;28;20243;-71
2023/05/07 08:48:49;;;;;;;3.80;3.07;;;;;;;-143.99;100.00;64180.81;6143938;28;20236;-71
2023/05/07 08:52:10;;;;;;;3.63;2.70;;;;;;;-143.99;100.00;64180.81;6135257;28;20230;-70
2023/05/07 08:55:33;;;;;;;4.00;3.57;;;;;;;-143.99;100.00;64180.81;6149298;28;20234;-70
2023/05/07 08:58:56;;;;;;;5.13;4.33;;;;;;;-143.99;100.00;64180.81;6140297;28;20267;-70
2023/05/07 09:02:17;;;;;;;2.93;2.73;;;;;;;-143.99;100.00;64180.81;6136208;28;20584;-70
2023/05/07 09:05:39;;;;;;;4.23;3.33;;;;;;;-143.99;100.00;64180.81;6133306;28;20231;-69
2023/05/07 09:09:02;;;;;;;3.40;3.10;;;;;;;-143.99;100.00;64180.81;6146685;28;20597;-71
2023/05/07 09:12:25;;;;;;;5.30;3.40;;;;;;;-143.99;100.00;64180.81;6136810;28;20234;-71
2023/05/07 09:15:47;;;;;;;6.67;3.40;;;;;;;-143.99;100.00;64180.81;6133808;28;20250;-71
2023/05/07 09:19:08;;;;;;;2.97;2.73;;;;;;;-143.99;100.00;64180.81;6129034;28;20239;-70
2023/05/07 09:22:32;;;;;;;2.57;2.23;;;;;;;-143.99;100.00;64180.81;6121776;28;20591;-70
2023/05/07 09:26:01;;;;;;;3.50;3.20;;;;;;;-143.99;100.00;64180.81;6146612;28;20508;-70
2023/05/07 09:29:23;;;;;;;2.97;2.77;;;;;;;-143.99;100.00;64180.81;6114396;28;22259;-70
2023/05/07 09:32:46;;;;;;;5.07;3.97;;;;;;;-143.99;100.00;64180.81;6133838;28;20235;-70
2023/05/07 09:36:12;;;;;;;3.87;3.37;;;;;;;-143.99;100.00;64180.81;6132004;28;20560;-70
2023/05/07 09:39:42;;;;;;;3.87;3.57;;;;;;;-143.99;100.00;64180.81;6155081;28;20505;-70
2023/05/07 09:43:11;;;;;;;3.30;2.97;;;;;;;-143.99;100.00;64180.81;6144161;28;20234;-70
2023/05/07 09:46:37;;;;;;;2.60;2.37;;;;;;;-143.99;100.00;64180.81;6150674;28;20329;-69
2023/05/07 09:50:09;;;;;;;3.77;3.40;;;;;;;-143.99;100.00;64180.81;6139942;28;20235;-71
2023/05/07 09:53:30;;;;;;;2.93;2.57;;;;;;;-143.99;100.00;64180.81;6152050;28;20231;-71
2023/05/07 09:56:53;;;;;;;3.67;3.37;;;;;;;-143.99;100.00;64180.81;6137287;28;20321;-71
2023/05/07 10:00:21;;;;;;;4.30;3.00;;;;;;;-143.99;100.00;64180.81;6132939;28;20248;-70
2023/05/07 10:03:43;;;;;;;2.70;2.43;;;;;;;-143.99;100.00;64180.81;6151885;28;20294;-70
2023/05/07 10:07:08;;;;;;;5.97;4.90;;;;;;;-143.99;100.00;64180.81;6141727;28;20222;-71
2023/05/07 10:10:31;;;;;;;3.63;3.27;;;;;;;-143.99;100.00;64180.81;6126653;28;20246;-70
2023/05/07 10:13:53;;;;;;;3.67;3.37;;;;;;;-143.99;100.00;64180.81;6141251;28;20235;-70
2023/05/07 10:17:17;;;;;;;2.40;2.23;;;;;;;-143.99;100.00;64180.81;6130615;28;20235;-69
2023/05/07 10:20:40;;;;;;;2.80;2.60;;;;;;;-143.99;100.00;64180.81;6134015;28;25250;-70
2023/05/07 10:24:13;;;;;;;3.53;3.23;;;;;;;-143.99;100.00;64180.81;6124514;28;20232;-71
2023/05/07 10:27:35;;;;;;;3.33;3.03;;;;;;;-143.99;100.00;64180.81;6126968;28;20235;-70
2023/05/07 10:31:09;;;;;;;3.17;2.80;;;;;;;-143.99;100.00;64180.81;6119298;28;20226;-70
2023/05/07 10:34:41;;;;;;;2.90;2.57;;;;;;;-143.99;100.00;64180.81;6135458;28;20243;-70
2023/05/07 10:38:03;;;;;;;2.53;2.20;;;;;;;-143.99;100.00;64180.81;6135287;28;20239;-70
2023/05/07 10:41:27;;;;;;;2.47;2.27;;;;;;;-143.99;100.00;64180.81;6145004;28;22135;-70
2023/05/07 10:44:48;;;;;;;2.77;2.57;;;;;;;-143.99;100.00;64180.81;6138705;28;20239;-69
2023/05/07 10:48:17;;;;;;;3.97;2.40;;;;;;;-143.99;100.00;64180.81;6137542;28;20258;-70
2023/05/07 10:51:46;;;;;;;2.77;2.57;;;;;;;-143.99;100.00;64180.81;6153347;28;20234;-70
2023/05/07 10:55:21;;;;;;;3.97;1.97;;;;;;;-143.99;100.00;64180.81;6129462;28;20242;-70
2023/05/07 10:58:54;;;;;;;3.90;2.60;;;;;;;-143.99;100.00;64180.81;6135205;28;20227;-70
2023/05/07 11:02:20;;;;;;;2.80;2.60;;;;;;;-143.99;100.00;64180.81;6129285;28;20231;-71
2023/05/07 11:05:46;;;;;;;3.23;2.73;;;;;;;-143.99;100.00;64180.81;6140768;28;20234;-71
2023/05/07 11:09:19;;;;;;;3.90;3.60;;;;;;;-143.99;100.00;64180.81;6139663;28;20242;-70
2023/05/07 11:12:54;;;;;;;2.83;2.63;;;;;;;-143.99;100.00;64180.81;6133904;28;20227;-71
2023/05/07 11:16:24;;;;;;;2.60;2.40;;;;;;;-143.99;100.00;64180.81;6153828;28;20250;-70
2023/05/07 11:19:51;;;;;;;4.37;2.93;;;;;;;-143.99;100.00;64180.81;6141301;28;20231;-70
2023/05/07 11:24:07;;;;;;;2.47;2.10;;;;;;;-143.99;100.00;64180.81;6142586;28;20616;-70
2023/05/07 11:27:35;;;;;;;3.80;2.70;;;;;;;-143.99;100.00;64180.81;6128192;28;20236;-70
2023/05/07 11:30:57;;;;;;;6.63;6.03;;;;;;;-143.99;100.00;64180.81;6137482;28;20242;-71
2023/05/07 11:34:25;;;;;;;3.10;2.63;;;;;;;-143.99;100.00;64180.81;6145777;28;20238;-72
2023/05/07 11:37:48;;;;;;;3.43;2.60;;;;;;;-143.99;100.00;64180.81;6144463;28;20234;-71
2023/05/07 11:41:10;;;;;;;2.63;2.43;;;;;;;-143.99;100.00;64180.81;6154126;28;20239;-71
2023/05/07 11:44:43;;;;;;;4.67;2.77;;;;;;;-143.99;100.00;64180.81;6141967;28;20223;-71
2023/05/07 11:48:04;;;;;;;2.63;2.00;;;;;;;-143.99;100.00;64180.81;6145908;28;20239;-72
2023/05/07 11:51:26;;;;;;;1.80;1.70;;;;;;;-143.99;100.00;64180.81;6142902;28;20238;-70
2023/05/07 11:54:50;;;;;;;2.70;2.50;;;;;;;-143.99;100.00;64180.81;6138326;28;20238;-71
2023/05/07 11:58:13;;;;;;;2.80;2.43;;;;;;;-143.99;100.00;64180.81;6141000;28;20239;-69
2023/05/07 12:01:36;;;;;;;2.23;2.10;;;;;;;-143.99;100.00;64180.81;6138867;28;20592;-71
2023/05/07 12:04:57;;;;;;;2.20;2.00;;;;;;;-143.99;100.00;64180.81;6139271;28;20227;-70
2023/05/07 12:08:20;;;;;;;3.00;2.70;;;;;;;-143.99;100.00;64180.81;6141980;28;20274;-71
2023/05/07 12:11:41;;;;;;;2.67;2.47;;;;;;;-143.99;100.00;64180.81;6142744;28;20231;-70
2023/05/07 12:15:02;;;;;;;2.50;2.30;;;;;;;-143.99;100.00;64180.81;6146647;28;20231;-69
2023/05/07 12:18:23;;;;;;;1.67;1.47;;;;;;;-143.99;100.00;64180.81;6141615;28;20250;-71
2023/05/07 12:21:44;;;;;;;2.70;2.50;;;;;;;-143.99;100.00;64180.81;6136892;28;20258;-71
2023/05/07 12:25:07;;;;;;;2.33;2.13;;;;;;;-143.99;100.00;64180.81;6137917;28;20227;-71
2023/05/07 12:28:28;;;;;;;6.50;2.70;;;;;;;-143.99;100.00;64180.81;6135480;28;20230;-71
2023/05/07 12:31:50;;;;;;;7.50;2.13;;;;;;;-143.99;100.00;64180.81;6145962;28;20250;-70
2023/05/07 12:35:11;;;;;;;2.33;2.23;;;;;;;-143.99;100.00;64180.81;6128384;28;20232;-70
2023/05/07 12:38:36;;;;;;;1.83;1.73;;;;;;;-143.99;100.00;64180.81;6150244;28;20512;-71
2023/05/07 12:42:00;;;;;;;2.17;1.97;;;;;;;-143.99;100.00;64180.81;6128924;28;20257;-70
2023/05/07 12:45:21;;;;;;;4.77;2.93;;;;;;;-143.99;100.00;64180.81;6133887;28;20235;-71
2023/05/07 12:48:45;;;;;;;2.50;2.30;;;;;;;-143.99;100.00;64180.81;6145174;28;20255;-70
2023/05/07 12:52:06;;;;;;;2.13;2.03;;;;;;;-143.99;100.00;64180.81;6129910;28;20234;-70
2023/05/07 12:55:30;;;;;;;2.33;2.03;;;;;;;-143.99;100.00;64180.81;6118884;28;20650;-70
2023/05/07 12:58:52;;;;;;;2.33;2.20;;;;;;;-143.99;100.00;64180.81;6142222;28;20243;-70
2023/05/07 13:02:13;;;;;;;2.30;2.10;;;;;;;-143.99;100.00;64180.81;6135954;28;20313;-70
2023/05/07 13:05:36;;;;;;;2.63;2.43;;;;;;;-143.99;100.00;64180.81;6123698;28;20237;-70
2023/05/07 13:08:56;;;;;;;1.73;1.37;;;;;;;-143.99;100.00;64180.81;6126290;28;20239;-70
2023/05/07 13:12:17;;;;;;;1.97;1.87;;;;;;;-143.99;100.00;64180.81;6132782;28;20242;-70
2023/05/07 13:15:39;;;;;;;2.80;1.90;;;;;;;-143.99;100.00;64180.81;6133130;28;20317;-70
2023/05/07 13:19:00;;;;;;;2.03;1.90;;;;;;;-143.99;100.00;64180.81;6145726;28;20234;-70
2023/05/07 13:22:21;;;;;;;1.50;1.33;;;;;;;-143.99;100.00;64180.81;6124224;28;20676;-70
2023/05/07 13:25:42;;;;;;;1.83;1.73;;;;;;;-143.99;100.00;64180.81;6136537;28;20237;-70
2023/05/07 13:29:02;;;;;;;2.93;1.67;;;;;;;-143.99;100.00;64180.81;6134784;28;20236;-69
2023/05/07 13:32:24;;;;;;;1.70;1.60;;;;;;;-143.99;100.00;64180.81;6131899;28;20265;-69
2023/05/07 13:35:45;;;;;;;1.30;1.20;;;;;;;-143.99;100.00;64180.81;6122140;28;20234;-69
2023/05/07 13:39:06;;;;;;;1.27;1.23;;;;;;;-143.99;100.00;64180.81;6134551;28;20836;-70
2023/05/07 13:42:27;;;;;;;1.60;1.50;;;;;;;-143.99;100.00;64180.81;6130860;28;20617;-71
2023/05/07 13:45:48;;;;;;;1.77;1.67;;;;;;;-143.99;100.00;64180.81;6115831;28;20359;-71
2023/05/07 13:49:12;;;;;;;1.40;1.30;;;;;;;-143.99;100.00;64180.81;6142392;28;20500;-70
2023/05/07 13:52:33;;;;;;;1.60;1.27;;;;;;;-143.99;100.00;64180.81;6128793;28;20228;-71
2023/05/07 13:55:53;;;;;;;1.55;1.30;;;;;;;-143.99;100.00;64180.81;6125852;28;20230;-70
2023/05/07 13:59:15;;;;;;;1.30;1.20;;;;;;;-143.99;100.00;64180.81;6139996;28;20318;-70
2023/05/07 14:02:35;;;;;;;1.63;1.13;;;;;;;-143.99;100.00;64180.81;6138143;28;20235;-70
2023/05/07 14:05:59;;;;;;;1.00;1.00;;;;;;;-143.99;100.00;64180.81;6127625;28;20234;-70
2023/05/07 14:09:20;;;;;;;1.67;1.10;;;;;;;-143.99;100.00;64180.81;6143112;28;20235;-70
2023/05/07 14:12:41;;;;;;;3.17;1.30;;;;;;;-143.99;100.00;64180.81;6133000;28;20262;-71
2023/05/07 14:16:02;;;;;;;2.55;1.88;;;;;;;-143.99;100.00;64180.81;6126421;28;20234;-71
2023/05/07 14:19:23;;;;;;;1.58;1.23;;;;;;;-143.99;100.00;64180.81;6142840;28;20251;-70
2023/05/07 14:22:46;;;;;;;1.23;1.13;;;;;;;-143.99;100.00;64180.81;6135628;28;20250;-71
2023/05/07 14:26:06;;;;;;;1.80;1.13;;;;;;;-143.99;100.00;64180.81;6119482;28;20490;-70
2023/05/07 14:29:27;;;;;;;2.40;2.20;;;;;;;-143.99;100.00;64180.81;6131711;28;20242;-70
2023/05/07 14:32:48;;;;;;;1.10;1.02;;;;;;;-143.99;100.00;64180.81;6134299;28;20637;-70
2023/05/07 14:36:09;;;;;;;1.00;1.00;;;;;;;-143.99;100.00;64180.81;6118628;28;20247;-70
2023/05/07 14:39:31;;;;;;;2.03;1.88;;;;;;;-143.99;100.00;64180.81;6131550;28;20231;-71
2023/05/07 14:42:52;;;;;;;0.93;0.93;;;;;;;-143.99;100.00;64180.81;6077728;28;20318;-70
2023/05/07 14:46:13;;;;;;;1.85;1.60;;;;;;;-143.99;100.00;64180.81;6117718;28;20444;-70
2023/05/07 14:49:34;;;;;;;1.08;1.08;;;;;;;-143.99;100.00;64180.81;6132360;28;20226;-70
2023/05/07 14:52:55;;;;;;;2.30;2.10;;;;;;;-143.99;100.00;64180.81;6125920;28;20235;-70
2023/05/07 14:56:17;;;;;;;0.93;0.85;;;;;;;-143.99;100.00;64180.81;6113448;28;20238;-70
2023/05/07 14:59:38;;;;;;;1.92;1.77;;;;;;;-143.99;100.00;64180.81;6135852;28;20238;-69
2023/05/07 15:03:07;;;;;;;1.33;1.23;;;;;;;-143.99;100.00;64180.81;6099175;28;20258;-69
2023/05/07 15:06:29;;;;;;;1.63;1.52;;;;;;;-143.99;100.00;64180.81;6105324;28;20230;-69
2023/05/07 15:09:50;;;;;;;3.33;1.58;;;;;;;-143.99;100.00;64180.81;6113177;28;20253;-70
2023/05/07 15:13:13;;;;;;;1.33;1.10;;;;;;;-143.99;100.00;64180.81;6105122;28;20506;-70
2023/05/07 15:16:33;;;;;;;1.75;1.45;;;;;;;-143.99;100.00;64180.81;6127951;28;20317;-70
2023/05/07 15:19:55;;;;;;;1.50;1.45;;;;;;;-143.99;100.00;64180.81;6122975;28;20924;-71
2023/05/07 15:23:16;;;;;;;1.38;1.27;;;;;;;-143.99;100.00;64180.81;6101866;28;20251;-68